Mr Chip — WDC3048 — position and weather

sailwx.info

Track history (hours):
 
Tides and Currents Weather Stations Pressure Air Temp Water Temp Dewpoint Dewpoint Depression Visibility Wind Speed Wind Dir Waves Ship Positions

Mr Chip

Owner: CENTRAL BOAT RENTALS, BERWICK, LA. More information available from US FCC via Universal Licensing System and Coast Guard Vessel Documentation Center.

Last reported at 2018-Jan-23 03:14 UTC. Time now 2018-Jan-23 06:02 UTC.
Position N 29°28' W 094°58'.

Length 14 m; draft 2.3 m.

Type: Tug. MMSI: 367001990.

Date/timePositionNaut miles runAvg speedWind from/ knotsBaromVisibWave heightAir tempDewpointWater temp
2018-Jan-23 03:14N 29°28' W 094°58'7 2.6
2018-Jan-23 00:39N 29°34' W 094°55'2 5.7
2018-Jan-23 00:20N 29°36' W 094°57'2 5.3
2018-Jan-23 00:00N 29°37' W 094°58'3 5.7
2018-Jan-22 23:29N 29°40' W 094°59'  
2018-Jan-19 21:02N 29°43' W 095°01'0 3.4
2018-Jan-19 21:00N 29°43' W 095°01'2 3.2
2018-Jan-19 20:21N 29°42' W 094°59'1 3.3
2018-Jan-19 20:01N 29°41' W 094°59'2 3.3
2018-Jan-19 19:29N 29°39' W 094°58'2 3.8
2018-Jan-19 18:58N 29°37' W 094°57'2 3.9
2018-Jan-19 18:25N 29°35' W 094°56'2 4.0
2018-Jan-19 18:00N 29°34' W 094°55'6 2.2
2018-Jan-19 15:06N 29°27' W 094°55'1 4.1
2018-Jan-19 14:58N 29°28' W 094°56'2 3.6
2018-Jan-19 14:30N 29°28' W 094°58'  
Track history (hours):
 
Tides and Currents Weather Stations Pressure Air Temp Water Temp Dewpoint Dewpoint Depression Visibility Wind Speed Wind Dir Waves Ship Positions

Mr Chip

Owner: CENTRAL BOAT RENTALS, BERWICK, LA. More information available from US FCC via Universal Licensing System and Coast Guard Vessel Documentation Center.

Last reported at 2018-Jan-23 03:14 UTC. Time now 2018-Jan-23 06:02 UTC.
Position N 29°28' W 094°58'.

Length 14 m; draft 2.3 m.

Type: Tug. MMSI: 367001990.

Date/timePositionNaut miles runAvg speedWind from/ knotsBaromVisibWave heightAir tempDewpointWater temp
2018-Jan-23 03:14N 29°28' W 094°58'7 2.6
2018-Jan-23 00:39N 29°34' W 094°55'2 5.7
2018-Jan-23 00:20N 29°36' W 094°57'2 5.3
2018-Jan-23 00:00N 29°37' W 094°58'3 5.7
2018-Jan-22 23:29N 29°40' W 094°59'  
2018-Jan-19 21:02N 29°43' W 095°01'0 3.4
2018-Jan-19 21:00N 29°43' W 095°01'2 3.2
2018-Jan-19 20:21N 29°42' W 094°59'1 3.3
2018-Jan-19 20:01N 29°41' W 094°59'2 3.3
2018-Jan-19 19:29N 29°39' W 094°58'2 3.8
2018-Jan-19 18:58N 29°37' W 094°57'2 3.9
2018-Jan-19 18:25N 29°35' W 094°56'2 4.0
2018-Jan-19 18:00N 29°34' W 094°55'6 2.2
2018-Jan-19 15:06N 29°27' W 094°55'1 4.1
2018-Jan-19 14:58N 29°28' W 094°56'2 3.6
2018-Jan-19 14:30N 29°28' W 094°58'  

Dump ship's entire track history